Time;durP1;ratioP1;P1;durP2;ratioP2;P2;SDS_P1;SDS_P2;PMS_P1;PMS_P2;Temp;Humidity;BMP_temperature;BMP_pressure;BME280_temperature;BME280_humidity;BME280_pressure;Samples;Min_cycle;Max_cycle;Signal;HPM_P1;HPM_P2
2022/07/27 00:00:19;;;;;;;;;;;;;;;27.12;46.18;97737.91;5140165;28;19991;-64
2022/07/27 00:02:45;;;;;;;;;;;;;;;26.88;46.58;97744.72;5137942;28;19938;-65
2022/07/27 00:05:11;;;;;;;;;;;;;;;26.57;47.08;97734.91;5138204;28;19969;-65
2022/07/27 00:07:38;;;;;;;;;;;;;;;25.62;48.80;97742.44;5141360;28;19949;-64
2022/07/27 00:10:05;;;;;;;;;;;;;;;25.37;49.40;97743.94;5141246;28;19983;-65
2022/07/27 00:12:31;;;;;;;;;;;;;;;24.99;50.34;97742.03;5133231;28;20363;-64
2022/07/27 00:14:58;;;;;;;;;;;;;;;25.20;50.27;97738.91;5140777;27;20085;-64
2022/07/27 00:17:26;;;;;;;;;;;;;;;26.00;49.20;97738.75;5143964;27;19923;-65
2022/07/27 00:19:52;;;;;;;;;;;;;;;26.42;48.08;97741.34;5145567;27;19958;-64
2022/07/27 00:22:18;;;;;;;;;;;;;;;26.65;47.71;97733.81;5143914;27;19934;-64
2022/07/27 00:24:45;;;;;;;;;;;;;;;26.93;47.04;97736.16;5141680;27;19971;-65
2022/07/27 00:27:11;;;;;;;;;;;;;;;27.06;46.80;97748.44;5142082;27;19928;-64
2022/07/27 00:29:37;;;;;;;;;;;;;;;27.10;46.72;97740.25;5143997;27;19927;-64
2022/07/27 00:32:04;;;;;;;;;;;;;;;27.11;46.97;97750.06;5145223;27;19978;-65
2022/07/27 00:34:32;;;;;;;;;;;;;;;27.12;46.79;97748.88;5142033;27;19924;-65
2022/07/27 00:36:58;;;;;;;;;;;;;;;27.08;46.91;97750.81;5141707;27;19987;-64
2022/07/27 00:39:25;;;;;;;;;;;;;;;27.03;46.87;97756.63;5143742;27;19924;-64
2022/07/27 00:41:51;;;;;;;;;;;;;;;26.92;46.86;97751.03;5142836;27;19923;-64
2022/07/27 00:44:24;;;;;;;;;;;;;;;26.71;47.17;97737.00;5141032;27;19927;-66
2022/07/27 00:46:50;;;;;;;;;;;;;;;26.30;47.90;97739.59;5141343;27;19939;-65
2022/07/27 00:49:17;;;;;;;;;;;;;;;25.94;48.71;97742.16;5142434;27;19924;-64
2022/07/27 00:51:44;;;;;;;;;;;;;;;26.27;48.17;97734.09;5144790;27;19977;-64
2022/07/27 00:54:11;;;;;;;;;;;;;;;26.63;47.68;97733.41;5144382;27;19951;-64
2022/07/27 00:56:37;;;;;;;;;;;;;;;26.85;47.30;97741.91;5141023;27;19963;-63
2022/07/27 00:59:06;;;;;;;;;;;;;;;26.92;47.16;97742.00;5140992;27;19948;-64
2022/07/27 01:01:32;;;;;;;;;;;;;;;26.96;47.05;97731.88;5144120;27;19955;-64
2022/07/27 01:03:58;;;;;;;;;;;;;;;27.00;46.88;97735.44;5144546;27;19923;-65
2022/07/27 01:06:25;;;;;;;;;;;;;;;27.03;46.80;97729.22;5142087;27;19923;-65
2022/07/27 01:09:55;;;;;;;;;;;;;;;26.98;47.10;97726.81;5140896;27;20031;-64
2022/07/27 01:11:39;;;;;;;;;;;;;;;26.83;47.39;97732.13;5132976;27;19924;-64
2022/07/27 01:14:07;;;;;;;;;;;;;;;26.68;47.70;97718.59;5140378;27;20007;-64
2022/07/27 01:16:33;;;;;;;;;;;;;;;26.80;47.52;97719.16;5140917;27;19928;-65
2022/07/27 01:18:59;;;;;;;;;;;;;;;26.70;47.79;97719.03;5140876;27;19966;-64
2022/07/27 01:21:26;;;;;;;;;;;;;;;26.80;47.72;97712.91;5143048;27;20014;-65
2022/07/27 01:23:53;;;;;;;;;;;;;;;26.87;47.57;97717.66;5144344;27;19931;-65
2022/07/27 01:26:20;;;;;;;;;;;;;;;26.89;47.49;97724.38;5141793;27;19924;-64
2022/07/27 01:28:46;;;;;;;;;;;;;;;26.94;47.62;97728.72;5140633;27;19928;-64
2022/07/27 01:31:12;;;;;;;;;;;;;;;26.92;47.46;97722.84;5140943;27;19951;-64
2022/07/27 01:33:39;;;;;;;;;;;;;;;26.91;47.59;97722.03;5144059;27;19924;-65
2022/07/27 01:36:05;;;;;;;;;;;;;;;26.84;47.74;97721.94;5142812;27;20379;-64
2022/07/27 01:38:32;;;;;;;;;;;;;;;26.88;47.92;97722.78;5140371;27;19952;-64
2022/07/27 01:40:59;;;;;;;;;;;;;;;26.14;49.24;97724.50;5140236;27;19962;-64
2022/07/27 01:43:26;;;;;;;;;;;;;;;25.65;50.56;97722.56;5136471;27;19963;-64
2022/07/27 01:45:52;;;;;;;;;;;;;;;25.17;51.69;97731.44;5143365;27;19934;-65
2022/07/27 01:48:18;;;;;;;;;;;;;;;25.16;51.78;97722.44;5142259;27;19941;-65
2022/07/27 01:50:45;;;;;;;;;;;;;;;24.68;53.59;97710.19;5140097;27;19931;-65
2022/07/27 01:53:11;;;;;;;;;;;;;;;24.17;54.95;97711.41;5140371;27;19927;-65
2022/07/27 01:55:38;;;;;;;;;;;;;;;23.67;57.03;97711.38;5143527;27;19927;-64
2022/07/27 01:58:06;;;;;;;;;;;;;;;23.19;59.16;97713.25;5143558;27;19924;-65
2022/07/27 02:00:33;;;;;;;;;;;;;;;22.94;62.25;97706.38;5139896;27;19923;-64
2022/07/27 02:02:59;;;;;;;;;;;;;;;23.20;63.48;97709.41;5139945;27;20388;-65
2022/07/27 02:05:25;;;;;;;;;;;;;;;23.92;60.83;97701.88;5142067;27;20011;-64
2022/07/27 02:07:52;;;;;;;;;;;;;;;24.03;59.23;97695.50;5143404;27;19958;-63
2022/07/27 02:10:18;;;;;;;;;;;;;;;23.67;60.49;97696.59;5141838;27;19966;-64
2022/07/27 02:12:43;;;;;;;;;;;;;;;23.67;61.42;97695.03;5134917;27;19931;-64
2022/07/27 02:15:12;;;;;;;;;;;;;;;23.66;61.50;97696.97;5139765;27;19923;-64
2022/07/27 02:17:39;;;;;;;;;;;;;;;24.33;59.86;97695.00;5143041;27;20573;-65
2022/07/27 02:20:06;;;;;;;;;;;;;;;24.07;59.88;97695.59;5143035;27;19923;-65
2022/07/27 02:22:33;;;;;;;;;;;;;;;23.80;60.82;97700.00;5139541;27;20022;-64
2022/07/27 02:24:59;;;;;;;;;;;;;;;23.79;61.15;97693.00;5139384;27;19923;-65
2022/07/27 02:27:26;;;;;;;;;;;;;;;23.80;61.35;97700.00;5141781;27;20438;-65
2022/07/27 02:29:52;;;;;;;;;;;;;;;24.32;59.64;97694.22;5142933;27;19977;-65
2022/07/27 02:32:20;;;;;;;;;;;;;;;24.28;59.55;97695.28;5141235;27;19924;-65
2022/07/27 02:34:47;;;;;;;;;;;;;;;24.30;59.14;97691.03;5139206;27;19970;-64
2022/07/27 02:37:13;;;;;;;;;;;;;;;24.57;58.09;97690.03;5138948;27;19924;-65
2022/07/27 02:39:39;;;;;;;;;;;;;;;24.22;59.14;97689.31;5142832;27;19923;-65
2022/07/27 02:42:06;;;;;;;;;;;;;;;24.33;58.68;97690.31;5138437;27;19924;-67
2022/07/27 02:44:33;;;;;;;;;;;;;;;24.39;59.04;97690.81;5137391;27;19952;-64
2022/07/27 02:46:59;;;;;;;;;;;;;;;24.76;58.32;97691.22;5138990;27;19927;-64
2022/07/27 02:49:27;;;;;;;;;;;;;;;25.26;56.41;97693.72;5141252;27;19924;-65
2022/07/27 02:51:54;;;;;;;;;;;;;;;25.49;54.96;97697.28;5142372;27;19923;-63
2022/07/27 02:54:20;;;;;;;;;;;;;;;25.74;54.34;97694.97;5140533;27;19949;-65
2022/07/27 02:56:47;;;;;;;;;;;;;;;25.60;54.30;97695.50;5138854;27;19930;-64
2022/07/27 02:59:13;;;;;;;;;;;;;;;25.78;53.74;97688.38;5139344;27;19940;-64
2022/07/27 03:01:40;;;;;;;;;;;;;;;25.60;54.10;97687.31;5142192;27;19947;-64
2022/07/27 03:04:06;;;;;;;;;;;;;;;25.82;53.37;97682.97;5142104;27;19923;-64
2022/07/27 03:06:34;;;;;;;;;;;;;;;25.87;53.08;97685.41;5138712;27;19924;-64
2022/07/27 03:09:00;;;;;;;;;;;;;;;25.93;52.75;97699.56;5138707;27;19953;-64
2022/07/27 03:11:27;;;;;;;;;;;;;;;25.91;52.76;97693.63;5140960;27;19924;-65
2022/07/27 03:13:53;;;;;;;;;;;;;;;25.95;52.59;97702.69;5137231;27;19951;-64
2022/07/27 03:16:20;;;;;;;;;;;;;;;25.98;52.38;97704.69;5140387;27;19962;-64
2022/07/27 03:18:46;;;;;;;;;;;;;;;25.92;52.30;97701.50;5138391;27;19924;-64
2022/07/27 03:21:12;;;;;;;;;;;;;;;25.36;53.29;97708.75;5138736;27;19934;-65
2022/07/27 03:23:40;;;;;;;;;;;;;;;25.17;54.16;97713.09;5141951;27;19923;-63
2022/07/27 03:26:06;;;;;;;;;;;;;;;24.55;55.55;97703.28;5142179;27;19923;-65
2022/07/27 03:28:33;;;;;;;;;;;;;;;23.85;57.81;97707.16;5138626;27;20030;-64
2022/07/27 03:30:59;;;;;;;;;;;;;;;24.13;58.01;97702.38;5138638;27;19959;-64
2022/07/27 03:33:26;;;;;;;;;;;;;;;24.07;58.13;97709.22;5140778;27;19931;-64
2022/07/27 03:35:52;;;;;;;;;;;;;;;23.54;60.33;97695.13;5141922;27;19939;-64
2022/07/27 03:38:19;;;;;;;;;;;;;;;23.16;63.14;97702.28;5140444;27;19986;-64
2022/07/27 03:40:47;;;;;;;;;;;;;;;22.53;67.75;97696.63;5138389;27;19935;-64
2022/07/27 03:43:13;;;;;;;;;;;;;;;22.48;69.56;97694.97;5134106;27;19931;-65
2022/07/27 03:45:39;;;;;;;;;;;;;;;22.97;68.11;97697.50;5141522;27;19923;-64
2022/07/27 03:48:06;;;;;;;;;;;;;;;23.07;66.61;97703.25;5141385;27;19923;-65
2022/07/27 03:50:33;;;;;;;;;;;;;;;23.55;64.42;97690.47;5138196;27;20359;-64
2022/07/27 03:52:59;;;;;;;;;;;;;;;24.45;60.94;97692.91;5138182;27;19928;-64
2022/07/27 03:55:26;;;;;;;;;;;;;;;24.67;59.88;97694.94;5140156;28;19931;-65
2022/07/27 03:57:54;;;;;;;;;;;;;;;24.68;58.86;97693.78;5141587;28;19934;-64
2022/07/27 04:00:20;;;;;;;;;;;;;;;25.03;57.68;97696.47;5139853;28;19963;-65
2022/07/27 04:02:46;;;;;;;;;;;;;;;24.98;57.52;97694.00;5137806;28;20105;-65
2022/07/27 04:05:13;;;;;;;;;;;;;;;24.73;58.19;97700.91;5138500;28;19924;-65
2022/07/27 04:07:39;;;;;;;;;;;;;;;25.12;57.06;97696.22;5141514;28;19924;-64
2022/07/27 04:10:07;;;;;;;;;;;;;;;25.25;56.51;97701.13;5141542;28;19974;-65
2022/07/27 04:12:35;;;;;;;;;;;;;;;24.98;56.94;97693.22;5132995;28;19923;-65
2022/07/27 04:15:03;;;;;;;;;;;;;;;24.62;57.87;97697.16;5137948;28;19934;-63
2022/07/27 04:17:30;;;;;;;;;;;;;;;24.47;58.61;97692.56;5140730;28;19927;-64
2022/07/27 04:19:56;;;;;;;;;;;;;;;24.21;59.29;97700.56;5140186;28;19970;-64
2022/07/27 04:22:22;;;;;;;;;;;;;;;24.75;58.29;97700.56;5139312;28;19992;-64
2022/07/27 04:24:49;;;;;;;;;;;;;;;25.10;57.12;97696.56;5137812;28;19927;-65
2022/07/27 04:27:15;;;;;;;;;;;;;;;25.27;56.34;97700.78;5138391;28;19924;-64
2022/07/27 04:29:41;;;;;;;;;;;;;;;25.28;56.06;97694.16;5141058;28;20378;-64
2022/07/27 04:32:09;;;;;;;;;;;;;;;24.96;56.47;97690.06;5141263;28;19954;-64
2022/07/27 04:34:35;;;;;;;;;;;;;;;24.23;58.33;97680.00;5129207;28;19928;-64
2022/07/27 04:37:02;;;;;;;;;;;;;;;23.46;61.66;97685.19;5137592;28;20030;-64
2022/07/27 04:39:28;;;;;;;;;;;;;;;23.84;61.50;97684.53;5140193;28;19924;-64
2022/07/27 04:41:55;;;;;;;;;;;;;;;24.34;59.67;97685.66;5138248;28;19955;-64
2022/07/27 04:44:21;;;;;;;;;;;;;;;24.18;59.92;97681.06;5137670;28;20007;-65
2022/07/27 04:46:47;;;;;;;;;;;;;;;24.06;60.62;97683.88;5137717;28;19923;-64
2022/07/27 04:49:15;;;;;;;;;;;;;;;23.85;61.11;97683.41;5138343;28;19920;-64
2022/07/27 04:51:42;;;;;;;;;;;;;;;23.75;61.90;97685.88;5141141;28;19927;-64
2022/07/27 04:54:08;;;;;;;;;;;;;;;23.67;62.85;97691.13;5141233;28;19923;-63
2022/07/27 04:56:35;;;;;;;;;;;;;;;24.40;60.36;97693.22;5129001;28;19927;-64
2022/07/27 04:59:01;;;;;;;;;;;;;;;24.00;61.64;97692.69;5137567;28;20093;-64
2022/07/27 05:01:27;;;;;;;;;;;;;;;23.42;63.98;97700.69;5141840;27;19928;-64
2022/07/27 05:03:54;;;;;;;;;;;;;;;23.67;63.32;97702.06;5144795;27;19958;-64
2022/07/27 05:06:22;;;;;;;;;;;;;;;24.19;61.65;97711.88;5143022;27;19923;-65
2022/07/27 05:08:48;;;;;;;;;;;;;;;24.59;59.83;97704.16;5141153;27;19969;-65
2022/07/27 05:11:14;;;;;;;;;;;;;;;24.71;59.10;97714.13;5141589;27;19970;-63
2022/07/27 05:13:41;;;;;;;;;;;;;;;24.47;59.60;97708.97;5139439;27;19924;-64
2022/07/27 05:16:09;;;;;;;;;;;;;;;24.02;61.04;97718.47;5144628;27;19951;-64
2022/07/27 05:18:35;;;;;;;;;;;;;;;23.67;62.60;97712.19;5132689;27;19924;-64
2022/07/27 05:21:02;;;;;;;;;;;;;;;24.15;61.56;97722.69;5140810;27;19923;-64
2022/07/27 05:23:29;;;;;;;;;;;;;;;24.58;59.95;97724.41;5143450;27;19935;-63
2022/07/27 05:25:56;;;;;;;;;;;;;;;23.87;62.25;97726.66;5144283;27;20607;-64
2022/07/27 05:28:22;;;;;;;;;;;;;;;23.29;65.29;97733.75;5142371;27;19982;-64
2022/07/27 05:30:48;;;;;;;;;;;;;;;23.51;65.41;97736.72;5140730;27;19983;-64
2022/07/27 05:33:15;;;;;;;;;;;;;;;22.87;70.01;97749.75;5141492;27;19955;-65
2022/07/27 05:35:41;;;;;;;;;;;;;;;23.24;68.63;97756.59;5144097;27;19919;-65
2022/07/27 05:38:07;;;;;;;;;;;;;;;23.89;65.28;97751.66;5144354;27;20010;-64
2022/07/27 05:40:35;;;;;;;;;;;;;;;22.64;72.58;97756.81;5140768;27;19963;-65
2022/07/27 05:43:01;;;;;;;;;;;;;;;22.39;76.62;97756.91;5135710;27;19924;-64
2022/07/27 05:45:28;;;;;;;;;;;;;;;22.41;76.94;97762.78;5142756;27;20546;-65
2022/07/27 05:47:54;;;;;;;;;;;;;;;22.47;78.06;97768.75;5143991;27;19945;-67
2022/07/27 05:50:21;;;;;;;;;;;;;;;22.26;80.03;97760.75;5142245;27;19927;-65
2022/07/27 05:52:47;;;;;;;;;;;;;;;22.35;80.17;97758.69;5140419;27;19924;-65
2022/07/27 05:55:13;;;;;;;;;;;;;;;22.56;78.01;97766.72;5140856;27;19934;-65
2022/07/27 05:57:41;;;;;;;;;;;;;;;22.80;77.11;97765.88;5143687;27;19978;-64
2022/07/27 06:00:08;;;;;;;;;;;;;;;22.60;80.11;97773.84;5143988;27;19934;-65
2022/07/27 06:02:35;;;;;;;;;;;;;;;22.90;77.08;97759.97;5131798;27;19927;-64
2022/07/27 06:05:01;;;;;;;;;;;;;;;23.28;74.28;97765.66;5140281;27;19928;-65
2022/07/27 06:10:11;;;;;;;;;;;;;;;23.22;73.75;97777.97;5143282;27;19987;-65
2022/07/27 06:12:38;;;;;;;;;;;;;;;22.91;76.47;97769.69;5134481;27;19935;-64
2022/07/27 06:15:07;;;;;;;;;;;;;;;22.95;77.36;97773.31;5139782;27;20337;-65
2022/07/27 06:17:33;;;;;;;;;;;;;;;23.31;76.15;97773.13;5143194;27;19959;-65
2022/07/27 06:20:00;;;;;;;;;;;;;;;23.16;76.23;97773.91;5143350;27;19962;-64
2022/07/27 06:22:26;;;;;;;;;;;;;;;22.85;78.74;97771.88;5141088;27;19976;-66
2022/07/27 06:24:53;;;;;;;;;;;;;;;23.30;75.99;97776.22;5139805;27;19927;-64
2022/07/27 06:27:19;;;;;;;;;;;;;;;23.29;75.73;97769.19;5140763;27;19962;-65
2022/07/27 06:29:46;;;;;;;;;;;;;;;23.21;77.05;97775.59;5143161;27;19946;-64
2022/07/27 06:32:14;;;;;;;;;;;;;;;22.33;83.71;97771.88;5142580;27;19924;-64
2022/07/27 06:34:40;;;;;;;;;;;;;;;22.89;80.62;97771.97;5139470;27;19967;-64
2022/07/27 06:37:06;;;;;;;;;;;;;;;23.20;78.45;97768.56;5139276;27;19959;-64
2022/07/27 06:39:33;;;;;;;;;;;;;;;23.33;77.37;97776.31;5142614;27;19935;-64
2022/07/27 06:41:59;;;;;;;;;;;;;;;23.76;74.80;97772.78;5138192;27;19924;-65
2022/07/27 06:44:25;;;;;;;;;;;;;;;24.55;69.32;97770.72;5139003;27;19977;-64
2022/07/27 06:46:52;;;;;;;;;;;;;;;23.93;72.51;97777.06;5139022;27;19991;-64
2022/07/27 06:49:19;;;;;;;;;;;;;;;23.32;76.81;97769.28;5140314;27;19924;-64
2022/07/27 06:51:48;;;;;;;;;;;;;;;23.20;78.94;97769.34;5142825;27;20037;-65
2022/07/27 06:54:14;;;;;;;;;;;;;;;22.79;82.94;97770.53;5141877;27;19923;-65
2022/07/27 06:56:41;;;;;;;;;;;;;;;22.75;83.12;97768.84;5139054;27;19959;-64
2022/07/27 06:59:07;;;;;;;;;;;;;;;23.30;78.80;97770.78;5139169;27;19969;-63
2022/07/27 07:01:33;;;;;;;;;;;;;;;23.49;78.10;97771.69;5142185;27;19924;-65
2022/07/27 07:04:00;;;;;;;;;;;;;;;23.92;75.57;97767.31;5142556;27;19923;-64
2022/07/27 07:06:27;;;;;;;;;;;;;;;23.87;75.96;97768.38;5140092;27;19957;-64
2022/07/27 07:08:54;;;;;;;;;;;;;;;23.76;75.11;97767.34;5138881;27;19935;-65
2022/07/27 07:11:20;;;;;;;;;;;;;;;23.71;75.43;97762.13;5140226;27;19934;-65
2022/07/27 07:13:46;;;;;;;;;;;;;;;23.86;74.02;97763.28;5137244;27;19931;-64
2022/07/27 07:16:13;;;;;;;;;;;;;;;24.05;72.48;97757.88;5141718;27;19930;-64
2022/07/27 07:18:39;;;;;;;;;;;;;;;24.31;71.60;97758.13;5138453;27;19924;-64
2022/07/27 07:21:06;;;;;;;;;;;;;;;24.48;70.34;97760.44;5138641;27;19939;-65
2022/07/27 07:23:33;;;;;;;;;;;;;;;24.78;68.86;97759.91;5141107;27;20329;-65
2022/07/27 07:26:00;;;;;;;;;;;;;;;24.83;68.43;97759.66;5142014;27;19924;-64
2022/07/27 07:28:26;;;;;;;;;;;;;;;25.06;67.07;97755.06;5139549;27;19923;-66
2022/07/27 07:30:52;;;;;;;;;;;;;;;24.67;68.62;97759.69;5138290;27;19969;-65
2022/07/27 07:33:19;;;;;;;;;;;;;;;24.49;69.84;97759.31;5139698;27;19931;-65
2022/07/27 07:35:46;;;;;;;;;;;;;;;25.04;68.45;97757.34;5142006;27;19923;-65
2022/07/27 07:38:12;;;;;;;;;;;;;;;25.48;65.87;97757.78;5141859;27;20447;-66
2022/07/27 07:40:40;;;;;;;;;;;;;;;25.64;64.77;97751.06;5137390;27;19970;-65
2022/07/27 07:43:06;;;;;;;;;;;;;;;25.78;63.38;97754.03;5133778;27;19962;-64
2022/07/27 07:45:36;;;;;;;;;;;;;;;26.02;62.09;97752.88;5141502;27;19924;-64
2022/07/27 07:48:03;;;;;;;;;;;;;;;26.25;61.43;97744.63;5142060;27;19923;-64
2022/07/27 07:50:29;;;;;;;;;;;;;;;25.97;61.36;97749.63;5139164;27;19962;-64
2022/07/27 07:52:56;;;;;;;;;;;;;;;26.08;61.34;97747.88;5138538;27;19966;-64
2022/07/27 07:55:23;;;;;;;;;;;;;;;26.02;61.32;97741.91;5140016;27;19927;-64
2022/07/27 07:57:51;;;;;;;;;;;;;;;25.83;61.27;97750.22;5141949;28;19924;-64
2022/07/27 08:00:18;;;;;;;;;;;;;;;25.91;61.99;97746.41;5140755;28;19927;-64
2022/07/27 08:02:45;;;;;;;;;;;;;;;26.38;60.30;97745.97;5138295;28;19954;-64
2022/07/27 08:05:11;;;;;;;;;;;;;;;26.77;58.86;97746.47;5138179;28;19959;-64
2022/07/27 08:07:38;;;;;;;;;;;;;;;26.78;58.22;97735.16;5141704;28;19938;-64
2022/07/27 08:10:05;;;;;;;;;;;;;;;26.73;57.94;97740.97;5141862;28;19924;-64
2022/07/27 08:12:31;;;;;;;;;;;;;;;26.39;58.07;97742.09;5133628;28;19995;-64
2022/07/27 08:14:59;;;;;;;;;;;;;;;25.75;60.37;97741.09;5138154;28;19943;-65
2022/07/27 08:17:25;;;;;;;;;;;;;;;26.08;59.69;97739.66;5140189;28;19962;-65
2022/07/27 08:19:52;;;;;;;;;;;;;;;26.61;58.96;97741.22;5141771;28;19926;-64
2022/07/27 08:22:18;;;;;;;;;;;;;;;26.59;58.65;97740.00;5140417;28;19971;-64
2022/07/27 08:24:44;;;;;;;;;;;;;;;26.83;58.06;97741.53;5138175;28;19959;-65
2022/07/27 08:27:11;;;;;;;;;;;;;;;27.15;56.91;97731.69;5138311;28;19931;-65
2022/07/27 08:29:37;;;;;;;;;;;;;;;27.25;56.36;97736.50;5141623;28;19976;-64
2022/07/27 08:32:05;;;;;;;;;;;;;;;27.20;55.63;97736.84;5141407;28;19967;-64
2022/07/27 08:34:32;;;;;;;;;;;;;;;27.11;56.25;97730.88;5138447;28;20043;-65
2022/07/27 08:36:58;;;;;;;;;;;;;;;27.16;55.96;97736.81;5140813;27;19955;-65
2022/07/27 08:39:24;;;;;;;;;;;;;;;27.38;55.86;97739.75;5144082;27;19934;-64
2022/07/27 08:41:52;;;;;;;;;;;;;;;26.91;55.37;97733.00;5143419;27;19931;-65
2022/07/27 08:44:22;;;;;;;;;;;;;;;26.55;56.56;97737.22;5141839;27;19951;-64
2022/07/27 08:46:49;;;;;;;;;;;;;;;26.34;57.14;97731.44;5142026;27;19924;-64
2022/07/27 08:49:17;;;;;;;;;;;;;;;26.94;56.58;97736.94;5142897;27;19924;-64
2022/07/27 08:51:45;;;;;;;;;;;;;;;27.56;55.34;97730.56;5145516;27;19959;-66
2022/07/27 08:54:11;;;;;;;;;;;;;;;27.93;54.31;97721.44;5145216;27;19934;-65
2022/07/27 08:56:37;;;;;;;;;;;;;;;27.64;54.29;97726.72;5141503;27;20305;-63
2022/07/27 08:59:04;;;;;;;;;;;;;;;27.16;54.33;97725.06;5141669;27;20037;-64
2022/07/27 09:01:31;;;;;;;;;;;;;;;27.08;55.29;97723.41;5144492;27;19936;-64
2022/07/27 09:03:57;;;;;;;;;;;;;;;27.51;55.28;97714.47;5145179;27;19943;-65
2022/07/27 09:06:41;;;;;;;;;;;;;;;27.85;54.09;97715.13;5143016;27;19924;-65
2022/07/27 09:09:08;;;;;;;;;;;;;;;27.46;51.23;97712.06;5141607;27;19931;-63
2022/07/27 09:11:36;;;;;;;;;;;;;;;27.41;53.62;97712.38;5144939;27;19924;-64
2022/07/27 09:14:02;;;;;;;;;;;;;;;27.57;52.64;97720.38;5136847;27;19924;-64
2022/07/27 09:16:30;;;;;;;;;;;;;;;27.92;52.55;97720.66;5143825;27;19939;-64
2022/07/27 09:18:58;;;;;;;;;;;;;;;27.91;52.42;97710.06;5144843;27;19930;-65
2022/07/27 09:21:25;;;;;;;;;;;;;;;28.18;52.03;97714.19;5142583;27;19930;-64
2022/07/27 09:23:53;;;;;;;;;;;;;;;28.40;51.53;97713.94;5141084;27;19969;-65
2022/07/27 09:26:20;;;;;;;;;;;;;;;28.36;49.37;97712.34;5142435;27;20064;-65
2022/07/27 09:28:47;;;;;;;;;;;;;;;28.23;48.92;97713.84;5144611;27;19947;-66
2022/07/27 09:31:14;;;;;;;;;;;;;;;27.81;47.98;97715.09;5143969;27;19927;-64
2022/07/27 09:33:42;;;;;;;;;;;;;;;27.46;48.98;97706.56;5140693;27;19946;-64
2022/07/27 09:36:08;;;;;;;;;;;;;;;27.44;49.70;97706.16;5140814;27;19927;-64
2022/07/27 09:38:35;;;;;;;;;;;;;;;27.66;49.99;97707.94;5144009;27;19990;-65
2022/07/27 09:41:04;;;;;;;;;;;;;;;27.69;49.90;97707.16;5143720;27;19958;-64
2022/07/27 09:43:32;;;;;;;;;;;;;;;27.65;49.68;97716.53;5135664;27;19928;-65
2022/07/27 09:46:05;;;;;;;;;;;;;;;27.64;47.93;97710.25;5143950;27;20068;-67
2022/07/27 09:48:33;;;;;;;;;;;;;;;27.52;49.67;97707.78;5141142;27;19924;-65
2022/07/27 09:51:00;;;;;;;;;;;;;;;27.59;49.54;97702.38;5139496;27;19927;-65
2022/07/27 09:53:31;;;;;;;;;;;;;;;27.72;48.27;97711.09;5142925;27;19990;-65
2022/07/27 09:55:59;;;;;;;;;;;;;;;27.86;48.32;97701.03;5144135;27;19923;-65
2022/07/27 09:58:39;;;;;;;;;;;;;;;27.72;48.28;97706.41;5141891;27;19924;-64
2022/07/27 10:01:05;;;;;;;;;;;;;;;27.80;47.60;97701.75;5140407;27;19924;-65
2022/07/27 10:03:32;;;;;;;;;;;;;;;27.82;48.63;97708.44;5143332;27;19980;-64
2022/07/27 10:05:58;;;;;;;;;;;;;;;28.11;48.81;97709.47;5143948;27;19924;-64
2022/07/27 10:08:25;;;;;;;;;;;;;;;28.27;48.63;97706.41;5141697;27;20296;-64
2022/07/27 10:10:51;;;;;;;;;;;;;;;27.94;47.95;97712.06;5140223;27;19963;-64
2022/07/27 10:13:17;;;;;;;;;;;;;;;27.69;48.57;97715.41;5136043;27;19965;-64
2022/07/27 10:15:45;;;;;;;;;;;;;;;27.45;48.91;97715.94;5143591;27;19979;-65
2022/07/27 10:18:16;;;;;;;;;;;;;;;27.22;49.34;97704.34;5143198;27;19995;-64
2022/07/27 10:20:44;;;;;;;;;;;;;;;27.50;49.18;97723.84;5139971;27;19983;-65
2022/07/27 10:23:24;;;;;;;;;;;;;;;27.03;49.45;97712.75;5140044;27;19979;-64
2022/07/27 10:26:10;;;;;;;;;;;;;;;27.05;49.89;97724.16;5143505;27;19987;-64
2022/07/27 10:28:48;;;;;;;;;;;;;;;27.13;50.11;97728.53;5131534;27;19928;-65
2022/07/27 10:31:17;;;;;;;;;;;;;;;27.31;50.10;97732.25;5140345;27;19924;-65
2022/07/27 10:33:45;;;;;;;;;;;;;;;27.63;49.59;97735.34;5143317;27;19923;-64
2022/07/27 10:36:14;;;;;;;;;;;;;;;27.83;49.50;97736.66;5143168;27;20069;-65
2022/07/27 10:38:45;;;;;;;;;;;;;;;27.72;48.95;97728.38;5139680;27;20012;-65
2022/07/27 10:41:22;;;;;;;;;;;;;;;27.32;49.48;97725.63;5139915;27;19923;-64
2022/07/27 10:43:50;;;;;;;;;;;;;;;27.46;49.23;97723.03;5138086;27;19934;-65
2022/07/27 10:46:20;;;;;;;;;;;;;;;27.61;49.50;97727.47;5142040;27;19934;-64
2022/07/27 10:48:47;;;;;;;;;;;;;;;28.04;48.64;97727.81;5139384;27;20639;-65
2022/07/27 10:51:15;;;;;;;;;;;;;;;28.30;48.29;97730.38;5140063;27;19969;-66
2022/07/27 10:53:42;;;;;;;;;;;;;;;28.35;47.80;97722.53;5142901;27;19949;-64
2022/07/27 10:56:10;;;;;;;;;;;;;;;28.41;48.26;97728.44;5142290;27;20308;-65
2022/07/27 10:58:44;;;;;;;;;;;;;;;28.10;47.26;97731.81;5129930;27;19971;-65
2022/07/27 11:01:12;;;;;;;;;;;;;;;28.03;47.89;97723.50;5139230;27;19923;-64
2022/07/27 11:03:40;;;;;;;;;;;;;;;28.38;47.77;97726.47;5142594;27;19927;-64
2022/07/27 11:06:08;;;;;;;;;;;;;;;28.39;47.35;97717.06;5142757;27;19923;-65
2022/07/27 11:08:35;;;;;;;;;;;;;;;28.30;47.59;97713.88;5139146;27;19935;-65
2022/07/27 11:11:03;;;;;;;;;;;;;;;28.48;47.40;97713.97;5139156;27;19935;-64
2022/07/27 11:13:30;;;;;;;;;;;;;;;28.47;47.13;97713.22;5136530;27;19974;-64
2022/07/27 11:15:58;;;;;;;;;;;;;;;28.63;47.03;97708.16;5142529;27;19923;-64
2022/07/27 11:18:24;;;;;;;;;;;;;;;28.71;47.18;97712.56;5140255;27;19987;-64
2022/07/27 11:20:52;;;;;;;;;;;;;;;28.90;46.50;97711.44;5138999;27;19996;-64
2022/07/27 11:23:19;;;;;;;;;;;;;;;28.90;45.49;97715.00;5139880;27;19966;-64
2022/07/27 11:25:57;;;;;;;;;;;;;;;28.71;45.19;97707.06;5142301;27;19962;-65
2022/07/27 11:28:27;;;;;;;;;;;;;;;28.49;46.02;97705.34;5140281;27;19934;-65
2022/07/27 11:30:54;;;;;;;;;;;;;;;28.38;44.94;97712.75;5138710;27;19967;-64
2022/07/27 11:33:21;;;;;;;;;;;;;;;28.16;44.95;97716.56;5139914;27;19947;-64
2022/07/27 11:35:50;;;;;;;;;;;;;;;28.29;45.85;97712.28;5142125;27;19958;-65
2022/07/27 11:38:18;;;;;;;;;;;;;;;28.03;45.08;97709.75;5140992;27;20292;-65
2022/07/27 11:40:45;;;;;;;;;;;;;;;28.00;44.63;97710.53;5138604;27;19959;-65
2022/07/27 11:43:11;;;;;;;;;;;;;;;28.09;45.54;97713.75;5133549;27;19951;-64
2022/07/27 11:45:38;;;;;;;;;;;;;;;28.16;44.16;97702.81;5141667;27;19938;-64
2022/07/27 11:48:08;;;;;;;;;;;;;;;28.30;45.65;97705.66;5142107;27;19928;-64
2022/07/27 11:50:35;;;;;;;;;;;;;;;28.30;45.31;97705.66;5138401;27;19959;-65
2022/07/27 11:53:01;;;;;;;;;;;;;;;28.52;44.56;97693.59;5138271;28;19951;-64
2022/07/27 11:55:29;;;;;;;;;;;;;;;28.61;44.93;97702.28;5140546;27;19924;-64
2022/07/27 11:58:01;;;;;;;;;;;;;;;28.74;45.19;97678.81;5141807;28;19948;-65
2022/07/27 12:00:39;;;;;;;;;;;;;;;28.90;44.43;97693.00;5138031;28;20026;-65
2022/07/27 12:03:05;;;;;;;;;;;;;;;28.83;43.84;97692.97;5138472;28;19931;-65
2022/07/27 12:05:32;;;;;;;;;;;;;;;28.91;43.33;97689.06;5141198;28;20002;-65
2022/07/27 12:07:58;;;;;;;;;;;;;;;28.88;43.39;97683.53;5141939;28;19949;-65
2022/07/27 12:10:25;;;;;;;;;;;;;;;28.87;43.21;97693.75;5140613;27;19919;-66
2022/07/27 12:12:53;;;;;;;;;;;;;;;28.88;43.41;97689.81;5137481;27;19995;-65
2022/07/27 12:15:20;;;;;;;;;;;;;;;28.80;43.38;97687.47;5143445;27;19955;-65
2022/07/27 12:17:47;;;;;;;;;;;;;;;28.89;41.61;97685.91;5145973;27;19924;-65
2022/07/27 12:20:14;;;;;;;;;;;;;;;28.89;42.67;97687.88;5145524;27;19929;-64
2022/07/27 12:22:42;;;;;;;;;;;;;;;29.04;42.65;97686.72;5142180;27;19966;-65
2022/07/27 12:25:09;;;;;;;;;;;;;;;28.99;43.14;97695.38;5142457;27;19923;-64
2022/07/27 12:27:36;;;;;;;;;;;;;;;29.12;42.28;97693.81;5133692;27;19974;-64
2022/07/27 12:30:09;;;;;;;;;;;;;;;28.96;42.90;97690.66;5142066;27;19946;-65
2022/07/27 12:32:36;;;;;;;;;;;;;;;28.73;43.91;97696.47;5145474;27;19924;-65
2022/07/27 12:35:15;;;;;;;;;;;;;;;28.43;44.49;97690.41;5145600;27;20032;-65
2022/07/27 12:37:42;;;;;;;;;;;;;;;28.34;44.56;97698.22;5134233;27;19934;-65
2022/07/27 12:40:13;;;;;;;;;;;;;;;28.46;44.28;97703.38;5141860;27;19930;-65
2022/07/27 12:42:39;;;;;;;;;;;;;;;28.40;43.69;97702.19;5128771;27;19943;-65
2022/07/27 12:45:15;;;;;;;;;;;;;;;28.46;43.57;97699.84;5141576;27;19978;-64
2022/07/27 12:47:41;;;;;;;;;;;;;;;28.28;43.54;97694.25;5134002;27;20191;-64
2022/07/27 12:50:09;;;;;;;;;;;;;;;28.28;45.40;97699.75;5141798;27;19962;-65